Terminal Aerodrome Forecast
Issued by NWS

Home | Current Version | Previous Version | Text Only | Print | Product List | Glossary On
Versions: 1 2 3 4 5 6 7 8 9 10 11 12 13
000
FTUS41 KCLE 310500
TAFFDY
TAF
KFDY 310536Z 3106/0106 22004KT P6SM SCT035 OVC050
     FM311200 24006KT P6SM VCSH SCT025 OVC035
      TEMPO 3114/3117 4SM -SHRA BR SCT015 OVC025
     FM311700 32012KT 4SM -SHRA BR OVC015
     FM312100 34018G32KT 3SM -SHRA SCT008 OVC015
     FM010300 35015G25KT 6SM -RASN BKN015 OVC025=

USA.gov is the U.S. government's official web portal to all federal, state and local government web resources and services.